Flight Track Log - Related Links

Times and Time Zones

All times are in EDT time to prevent confusion due to time zone crossing. See the ASA10 flight status page for this flight to view local times or setup timezone preferences in your user account.

Time Position Orientation Groundspeed Altitude Reporting Facility
EDT Latitude Longitude Course Direction KTS MPH feet Rate Location/Type
Sat 01:07:41 AM 47.4733 -122.3122 North 168 193 1,500  Level Seattle Center
Sat 01:08:11 AM 47.4933 -122.3111 North 166 191 2,500 1,833 Climbing Seattle Center
Sat 01:08:53 AM 47.5303 -122.3106 North 184 212 3,700 2,155 Climbing Seattle Center
Sat 01:09:54 AM 47.5939 -122.3619 331° Northwest 253 291 6,200 2,479 Climbing Seattle Center
Sat 01:10:54 AM 47.6128 -122.4664 285° West 281 323 8,700 2,231 Climbing Seattle Center
Sat 01:11:55 AM 47.5536 -122.5531 225° Southwest 312 359 10,700 1,785 Climbing Seattle Center
Sat 01:12:55 AM 47.4556 -122.5547 181° South 361 415 12,300 1,934 Climbing Seattle Center
Sat 01:13:56 AM 47.3497 -122.5525 179° South 384 442 14,600 2,331 Climbing Seattle Center
Sat 01:14:56 AM 47.2408 -122.4925 159° South 399 459 17,000 1,934 Climbing Seattle Center
Sat 01:15:57 AM 47.1556 -122.4239 151° Southeast 408 470 18,500 1,785 Climbing Seattle Center
Sat 01:16:57 AM 47.0531 -122.3431 152° Southeast 421 484 20,600 1,736 Climbing Seattle Center
Sat 01:17:58 AM 46.9681 -122.2275 137° Southeast 430 495 22,000 1,686 Climbing Seattle Center
Sat 01:18:58 AM 46.9100 -122.0358 114° Southeast 435 501 24,000 1,934 Climbing Seattle Center
Sat 01:19:59 AM 46.8589 -121.8725 115° Southeast 444 511 25,900 1,835 Climbing Seattle Center
Sat 01:20:59 AM 46.8081 -121.7150 115° Southeast 439 505 27,700 1,488 Climbing Seattle Center
Sat 01:22:00 AM 46.7564 -121.5508 115° Southeast 440 506 28,900 1,140 Climbing Seattle Center
Sat 01:23:00 AM 46.7047 -121.3858 114° Southeast 446 513 30,000 1,240 Climbing Seattle Center
Sat 01:24:01 AM 46.6508 -121.2208 115° Southeast 450 518 31,400 1,289 Climbing Seattle Center
Sat 01:25:01 AM 46.5969 -121.0567 115° Southeast 450 518 32,600 793 Climbing Seattle Center
Sat 01:26:02 AM 46.5456 -120.8928 114° Southeast 447 514 33,000 787 Climbing Seattle Center
Sat 01:27:03 AM 46.4911 -120.7308 116° Southeast 447 514 34,200 942 Climbing Seattle Center
Sat 01:28:03 AM 46.4397 -120.5719 115° Southeast 438 504 34,900 400 Climbing Seattle Center
Sat 01:29:03 AM 46.3847 -120.4078 116° Southeast 449 517 35,000 50 Climbing Seattle Center
Sat 01:30:04 AM 46.3303 -120.2450 116° Southeast 450 518 35,000  Level Seattle Center
Sat 01:31:04 AM 46.2769 -120.0806 115° Southeast 451 519 35,000  Level Seattle Center
Sat 01:32:05 AM 46.2247 -119.9158 115° Southeast 450 518 35,000  Level Seattle Center
Sat 01:33:05 AM 46.1733 -119.7497 114° Southeast 453 521 35,000  Level Seattle Center
Sat 01:34:06 AM 46.1167 -119.5800 116° Southeast 463 533 35,000  Level Seattle Center
Sat 01:35:06 AM 46.0628 -119.4108 115° Southeast 465 535 35,000  Level Seattle Center
Sat 01:36:07 AM 46.0086 -119.2444 115° Southeast 462 532 35,000  Level Seattle Center
Sat 01:37:07 AM 45.9558 -119.0803 115° Southeast 455 524 35,000  Level Seattle Center
Sat 01:38:08 AM 45.9011 -118.9150 115° Southeast 457 526 35,000  Level Seattle Center
Sat 01:39:08 AM 45.8461 -118.7489 115° Southeast 461 531 35,000  Level Seattle Center
Sat 01:40:09 AM 45.7908 -118.5819 115° Southeast 463 533 35,000  Level Seattle Center
Sat 01:41:09 AM 45.7367 -118.4217 116° Southeast 461 531 35,000  Level Seattle Center
Sat 01:42:10 AM 45.6797 -118.2525 116° Southeast 459 528 35,000  Level Seattle Center
Sat 01:43:10 AM 45.6239 -118.0872 116° Southeast 463 533 35,000  Level Seattle Center
Sat 01:44:11 AM 45.5672 -117.9214 116° Southeast 465 535 35,000  Level Seattle Center
Sat 01:45:11 AM 45.5103 -117.7564 116° Southeast 463 533 35,000  Level Seattle Center
Sat 01:46:11 AM 45.4528 -117.5911 116° Southeast 465 535 35,000  Level Seattle Center
Sat 01:47:12 AM 45.3953 -117.4261 116° Southeast 467 537 35,000  Level Seattle Center
Sat 01:48:12 AM 45.3267 -117.2297 116° Southeast 470 541 35,000  Level Seattle Center
Sat 01:49:13 AM 45.2714 -117.0717 116° Southeast 468 539 35,000  Level Seattle Center
Sat 01:50:13 AM 45.2156 -116.9139 117° Southeast 466 536 35,000  Level Seattle Center
Sat 01:51:14 AM 45.1483 -116.7300 117° Southeast 469 540 35,000  Level Seattle Center
Sat 01:52:14 AM 45.0919 -116.5725 117° Southeast 469 540 35,000  Level Seattle Center
Sat 01:53:14 AM 45.0358 -116.4147 117° Southeast 469 540 35,000  Level Seattle Center
Sat 01:54:15 AM 44.9792 -116.2589 117° Southeast 466 536 35,000  Level Seattle Center
Sat 01:55:15 AM 44.9111 -116.0742 117° Southeast 470 541 35,000  Level Seattle Center
Sat 01:56:16 AM 44.8531 -115.9150 117° Southeast 473 544 35,000  Level Seattle Center
Sat 01:57:16 AM 44.7947 -115.7583 118° Southeast 470 541 35,000  Level Seattle Center
Sat 01:58:17 AM 44.7364 -115.6019 118° Southeast 470 541 35,000  Level Seattle Center
Sat 01:59:17 AM 44.6689 -115.4206 118° Southeast 468 539 35,000  Level Seattle Center
Sat 02:00:17 AM 44.6103 -115.2669 118° Southeast 465 535 35,000  Level Seattle Center
Sat 02:01:18 AM 44.5536 -115.1175 118° Southeast 456 525 35,000  Level Seattle Center
Sat 02:02:25 AM 44.4894 -114.9439 117° Southeast 449 517 35,000  Level Salt Lake Center
Sat 02:03:25 AM 44.4214 -114.7700 119° Southeast 454 522 35,000  Level Salt Lake Center
Sat 02:04:26 AM 44.3647 -114.6206 118° Southeast 454 522 35,000  Level Salt Lake Center
Sat 02:05:26 AM 44.3072 -114.4706 118° Southeast 456 525 35,000  Level Salt Lake Center
Sat 02:06:27 AM 44.2486 -114.3203 119° Southeast 459 528 35,000  Level Salt Lake Center
Sat 02:07:27 AM 44.1786 -114.1444 119° Southeast 461 531 35,000  Level Salt Lake Center
Sat 02:08:28 AM 44.1194 -113.9956 119° Southeast 461 531 35,000  Level Salt Lake Center
Sat 02:09:28 AM 44.0594 -113.8403 118° Southeast 461 531 35,000  Level Salt Lake Center
Sat 02:10:29 AM 44.0000 -113.6917 119° Southeast 460 529 35,000  Level Salt Lake Center
Sat 02:11:29 AM 43.9292 -113.5167 119° Southeast 466 536 35,000  Level Salt Lake Center
Sat 02:12:30 AM 43.8686 -113.3672 119° Southeast 465 535 35,000  Level Salt Lake Center
Sat 02:13:30 AM 43.8078 -113.2178 119° Southeast 465 535 35,000  Level Salt Lake Center
Sat 02:14:31 AM 43.7369 -113.0425 119° Southeast 467 537 35,000  Level Salt Lake Center
Sat 02:15:59 AM 43.6461 -112.8192 119° Southeast 465 535 35,000  Level Salt Lake Center
Sat 02:17:00 AM 43.5844 -112.6700 120° Southeast 466 536 35,000  Level Salt Lake Center
Sat 02:18:00 AM 43.5136 -112.5006 120° Southeast 459 528 35,000  Level Salt Lake Center
Sat 02:19:01 AM 43.4536 -112.3547 120° Southeast 458 527 35,000  Level Salt Lake Center
Sat 02:20:01 AM 43.3922 -112.2094 120° Southeast 459 528 35,000  Level Salt Lake Center
Sat 02:21:01 AM 43.3197 -112.0394 120° Southeast 462 532 35,000  Level Salt Lake Center
Sat 02:22:02 AM 43.2575 -111.8925 120° Southeast 466 536 35,000  Level Salt Lake Center
Sat 02:23:02 AM 43.1956 -111.7475 120° Southeast 464 534 35,000  Level Salt Lake Center
Sat 02:24:03 AM 43.1225 -111.5778 120° Southeast 464 534 35,000  Level Salt Lake Center
Sat 02:25:03 AM 43.0594 -111.4339 121° Southeast 462 532 35,000  Level Salt Lake Center
Sat 02:26:04 AM 42.9975 -111.2881 120° Southeast 464 534 35,000  Level Salt Lake Center
Sat 02:27:04 AM 42.9333 -111.1436 121° Southeast 465 535 35,000  Level Salt Lake Center
Sat 02:28:04 AM 42.8608 -110.9747 120° Southeast 464 534 35,000  Level Salt Lake Center
Sat 02:29:05 AM 42.7964 -110.8319 122° Southeast 464 534 35,000  Level Salt Lake Center
Sat 02:30:05 AM 42.7325 -110.6867 121° Southeast 467 537 35,000  Level Salt Lake Center
Sat 02:31:06 AM 42.6592 -110.5242 121° Southeast 459 528 35,000  Level Salt Lake Center
Sat 02:32:06 AM 42.5944 -110.3822 122° Southeast 461 531 35,000  Level Salt Lake Center
Sat 02:33:07 AM 42.5317 -110.2400 121° Southeast 461 531 35,000  Level Salt Lake Center
Sat 02:34:07 AM 42.4567 -110.0744 122° Southeast 461 531 35,000  Level Salt Lake Center
Sat 02:35:08 AM 42.3928 -109.9353 122° Southeast 457 526 35,000  Level Salt Lake Center
Sat 02:36:08 AM 42.3294 -109.7942 121° Southeast 458 527 35,000  Level Salt Lake Center
Sat 02:37:09 AM 42.2542 -109.6311 122° Southeast 458 527 35,000  Level Salt Lake Center
Sat 02:38:09 AM 42.1894 -109.4908 122° Southeast 459 528 35,000  Level Salt Lake Center
Sat 02:39:09 AM 42.1256 -109.3503 121° Southeast 460 529 35,000  Level Salt Lake Center
Sat 02:40:10 AM 42.0597 -109.2097 122° Southeast 461 531 35,000  Level Salt Lake Center
Sat 02:41:10 AM 41.9850 -109.0469 122° Southeast 459 528 35,000  Level Salt Lake Center
Sat 02:42:11 AM 41.9194 -108.9081 122° Southeast 458 527 35,000  Level Salt Lake Center
Sat 02:43:11 AM 41.8525 -108.7672 123° Southeast 463 533 35,000  Level Salt Lake Center
Sat 02:44:12 AM 41.7742 -108.6019 122° Southeast 466 536 35,000  Level Salt Lake Center
Sat 02:45:12 AM 41.7061 -108.4606 123° Southeast 470 541 35,000  Level Salt Lake Center
Sat 02:46:12 AM 41.6378 -108.3172 123° Southeast 476 548 35,000  Level Salt Lake Center
Sat 02:47:13 AM 41.5714 -108.1767 122° Southeast 467 537 35,000  Level Salt Lake Center
Sat 02:47:37 AM 41.5364 -108.1036 123° Southeast 473 544 35,000  Level Denver Center
Sat 02:48:37 AM 41.4681 -107.9647 123° Southeast 469 540 35,000  Level Denver Center
Sat 02:49:37 AM 41.3989 -107.8231 123° Southeast 474 545 35,000  Level Denver Center
Sat 02:50:38 AM 41.3192 -107.6575 123° Southeast 477 549 35,000  Level Denver Center
Sat 02:51:38 AM 41.2497 -107.5178 123° Southeast 473 544 35,000  Level Denver Center
Sat 02:52:39 AM 41.1806 -107.3769 123° Southeast 476 548 35,000  Level Denver Center
Sat 02:53:39 AM 41.0983 -107.2106 123° Southeast 483 556 35,000  Level Denver Center
Sat 02:54:39 AM 41.0267 -107.0689 124° Southeast 483 556 35,000  Level Denver Center
Sat 02:55:40 AM 40.9542 -106.9253 124° Southeast 489 563 35,000  Level Denver Center
Sat 02:56:40 AM 40.8708 -106.7603 124° Southeast 485 558 35,000  Level Denver Center
Sat 02:57:40 AM 40.8003 -106.6175 123° Southeast 485 558 35,000  Level Denver Center
Sat 02:58:41 AM 40.7289 -106.4792 124° Southeast 485 558 35,000 248 Level Denver Center
Sat 02:59:41 AM 40.6567 -106.3378 124° Southeast 485 558 35,500 694 Climbing Denver Center
Sat 03:00:42 AM 40.5717 -106.1711 124° Southeast 490 564 36,400 744 Climbing Denver Center
Sat 03:01:42 AM 40.4997 -106.0325 124° Southeast 485 558 37,000 300 Climbing Denver Center
Sat 03:02:42 AM 40.4242 -105.8875 124° Southeast 478 550 37,000  Level Denver Center
Sat 03:03:43 AM 40.3472 -105.7406 124° Southeast 482 555 37,000  Level Denver Center
Sat 03:04:43 AM 40.2694 -105.5922 124° Southeast 486 559 37,000  Level Denver Center
Sat 03:05:43 AM 40.1894 -105.4381 124° Southeast 506 582 37,000  Level Denver Center
Sat 03:06:44 AM 40.1114 -105.2889 124° Southeast 493 567 37,000  Level Denver Center
Sat 03:07:44 AM 40.0306 -105.1397 125° Southeast 498 573 37,000  Level Denver Center
Sat 03:08:45 AM 39.9514 -104.9900 125° Southeast 494 568 37,000  Level Denver Center
Sat 03:09:45 AM 39.8678 -104.8372 125° Southeast 507 583 37,000  Level Denver Center
Sat 03:10:45 AM 39.7889 -104.6856 124° Southeast 514 592 37,000  Level Denver Center
Sat 03:11:46 AM 39.7183 -104.5578 126° Southeast 499 574 37,000  Level Denver Center
Sat 03:12:46 AM 39.6339 -104.4000 125° Southeast 520 598 37,000  Level Denver Center
Sat 03:13:46 AM 39.5506 -104.2492 126° Southeast 504 580 37,000  Level Denver Center
Sat 03:14:47 AM 39.4661 -104.0964 126° Southeast 514 592 37,000  Level Denver Center
Sat 03:15:47 AM 39.3839 -103.9464 125° Southeast 500 575 37,000  Level Denver Center
Sat 03:16:48 AM 39.3014 -103.7975 126° Southeast 503 579 37,000  Level Denver Center
Sat 03:17:48 AM 39.2178 -103.6472 126° Southeast 510 587 37,000  Level Denver Center
Sat 03:18:48 AM 39.1350 -103.4975 125° Southeast 506 582 37,000  Level Denver Center
Sat 03:19:49 AM 39.0508 -103.3492 126° Southeast 509 586 37,000  Level Denver Center
Sat 03:20:49 AM 38.9667 -103.2006 126° Southeast 508 585 37,000  Level Denver Center
Sat 03:21:50 AM 38.8833 -103.0511 126° Southeast 509 586 37,000  Level Denver Center
Sat 03:22:50 AM 38.7981 -102.9033 126° Southeast 511 588 37,000  Level Denver Center
Sat 03:23:50 AM 38.7078 -102.7469 126° Southeast 514 592 37,000  Level Denver Center
Sat 03:24:51 AM 38.6244 -102.6008 126° Southeast 511 588 37,000  Level Denver Center
Sat 03:25:51 AM 38.5433 -102.4614 127° Southeast 510 587 37,000  Level Denver Center
Sat 03:26:52 AM 38.4631 -102.3225 126° Southeast 508 585 37,000  Level Denver Center
Sat 03:27:52 AM 38.3958 -102.2067 126° Southeast 510 587 37,000  Level Denver Center
Sat 03:28:53 AM 38.2878 -102.0206 126° Southeast 511 588 37,000  Level Denver Center
Sat 03:29:53 AM 38.2047 -101.8808 127° Southeast 516 594 37,000  Level Denver Center
Sat 03:30:54 AM 38.1100 -101.7186 127° Southeast 513 590 37,000  Level Denver Center
Sat 03:31:54 AM 38.0275 -101.5808 127° Southeast 512 589 37,000  Level Denver Center
Sat 03:32:54 AM 37.9458 -101.4422 127° Southeast 515 593 37,000  Level Denver Center
Sat 03:33:55 AM 37.8633 -101.3050 127° Southeast 513 590 37,000  Level Denver Center
Sat 03:34:22 AM 37.8217 -101.2361 127° Southeast 514 592 37,000  Level Kansas City Center
Sat 03:35:22 AM 37.7528 -101.1225 127° Southeast 513 590 37,000  Level Kansas City Center
Sat 03:36:22 AM 37.6419 -100.9433 128° Southeast 514 592 37,000  Level Kansas City Center
Sat 03:37:23 AM 37.5497 -100.7858 126° Southeast 519 597 37,000  Level Kansas City Center
Sat 03:38:23 AM 37.4661 -100.6494 128° Southeast 517 595 37,000  Level Kansas City Center
Sat 03:39:23 AM 37.3833 -100.5136 127° Southeast 514 592 37,000  Level Kansas City Center
Sat 03:40:23 AM 37.3003 -100.3769 127° Southeast 514 592 37,000  Level Kansas City Center
Sat 03:41:24 AM 37.2028 -100.2186 128° Southeast 514 592 37,000  Level Kansas City Center
Sat 03:42:24 AM 37.1189 -100.0839 128° Southeast 513 590 37,000  Level Kansas City Center
Sat 03:43:24 AM 37.0350 -99.9500 128° Southeast 512 589 37,000  Level Kansas City Center
Sat 03:44:25 AM 36.9372 -99.7947 128° Southeast 511 588 37,000  Level Kansas City Center
Sat 03:45:25 AM 36.8533 -99.6600 128° Southeast 512 589 37,000  Level Kansas City Center
Sat 03:46:25 AM 36.7608 -99.5358 133° Southeast 512 589 37,000  Level Kansas City Center
Sat 03:47:25 AM 36.6578 -99.4200 138° Southeast 519 597 37,000  Level Kansas City Center
Sat 03:48:26 AM 36.5403 -99.2792 136° Southeast 524 603 37,000  Level Kansas City Center
Sat 03:49:26 AM 36.4422 -99.1658 137° Southeast 524 603 37,000  Level Kansas City Center
Sat 03:50:26 AM 36.3367 -99.0392 136° Southeast 527 606 37,000  Level Kansas City Center
Sat 03:51:27 AM 36.2483 -98.8925 127° Southeast 529 609 37,000  Level Kansas City Center
Sat 03:52:27 AM 36.1578 -98.7494 128° Southeast 531 611 37,000  Level Kansas City Center
Sat 03:53:27 AM 36.0656 -98.6083 129° Southeast 529 609 37,000  Level Kansas City Center
Sat 03:54:27 AM 35.9750 -98.4656 128° Southeast 529 609 37,000  Level Kansas City Center
Sat 03:55:28 AM 35.8850 -98.3258 128° Southeast 524 603 37,000  Level Kansas City Center
Sat 03:56:15 AM 35.8103 -98.2119 129° Southeast 523 602 37,000  Level Fort Worth Center
Sat 03:57:15 AM 35.7214 -98.0731 128° Southeast 523 602 37,000  Level Fort Worth Center
Sat 03:58:15 AM 35.6325 -97.9319 128° Southeast 523 602 37,000  Level Fort Worth Center
Sat 03:59:15 AM 35.5411 -97.7961 130° Southeast 523 602 37,000  Level Fort Worth Center
Sat 04:00:15 AM 35.4478 -97.6583 130° Southeast 523 602 37,000  Level Fort Worth Center
Sat 04:01:15 AM 35.3542 -97.5231 130° Southeast 523 602 37,000  Level Fort Worth Center
Sat 04:02:15 AM 35.2519 -97.3653 128° Southeast 530 610 37,000  Level Fort Worth Center
Sat 04:03:15 AM 35.1619 -97.2256 128° Southeast 530 610 37,000  Level Fort Worth Center
Sat 04:04:15 AM 35.0700 -97.0889 129° Southeast 524 603 37,000  Level Fort Worth Center
Sat 04:05:15 AM 34.9800 -96.9522 129° Southeast 519 597 37,000  Level Fort Worth Center
Sat 04:06:15 AM 34.8856 -96.8136 130° Southeast 524 603 37,000  Level Fort Worth Center
Sat 04:07:15 AM 34.7950 -96.6778 129° Southeast 524 603 37,000  Level Fort Worth Center
Sat 04:08:15 AM 34.7025 -96.5422 130° Southeast 519 597 37,000  Level Fort Worth Center
Sat 04:09:15 AM 34.6094 -96.4042 129° Southeast 519 597 37,000  Level Fort Worth Center
Sat 04:10:15 AM 34.5167 -96.2692 130° Southeast 519 597 37,000  Level Fort Worth Center
Sat 04:11:15 AM 34.4236 -96.1319 129° Southeast 519 597 37,000  Level Fort Worth Center
Sat 04:12:15 AM 34.3281 -95.9978 131° Southeast 519 597 37,000  Level Fort Worth Center
Sat 04:13:15 AM 34.2369 -95.8611 129° Southeast 519 597 37,000  Level Fort Worth Center
Sat 04:14:15 AM 34.1411 -95.7272 131° Southeast 524 603 37,000  Level Fort Worth Center
Sat 04:15:15 AM 34.0517 -95.5886 128° Southeast 524 603 37,000  Level Fort Worth Center
Sat 04:16:15 AM 33.9536 -95.4578 132° Southeast 524 603 37,000  Level Fort Worth Center
Sat 04:17:15 AM 33.8639 -95.3222 129° Southeast 524 603 37,000  Level Fort Worth Center
Sat 04:18:15 AM 33.7675 -95.1897 131° Southeast 524 603 37,000  Level Fort Worth Center
Sat 04:19:15 AM 33.6756 -95.0572 130° Southeast 519 597 37,000  Level Fort Worth Center
Sat 04:20:15 AM 33.5831 -94.9250 130° Southeast 519 597 37,000  Level Fort Worth Center
Sat 04:21:15 AM 33.4867 -94.7933 131° Southeast 519 597 37,000  Level Fort Worth Center
Sat 04:22:15 AM 33.4144 -94.6436 120° Southeast 519 597 37,000  Level Fort Worth Center
Sat 04:23:15 AM 33.3669 -94.4761 109° East 513 590 37,000  Level Fort Worth Center
Sat 04:24:15 AM 33.3169 -94.3111 110° East 524 603 37,000  Level Fort Worth Center
Sat 04:25:15 AM 33.2692 -94.1564 110° East 534 615 37,000  Level Fort Worth Center
Sat 04:26:15 AM 33.2147 -93.9919 112° Southeast 534 615 37,000  Level Fort Worth Center
Sat 04:27:15 AM 33.1661 -93.8225 109° East 544 626 37,000  Level Fort Worth Center
Sat 04:28:15 AM 33.1133 -93.6536 110° East 544 626 37,000  Level Fort Worth Center
Sat 04:29:15 AM 33.0600 -93.4847 111° Southeast 544 626 37,000  Level Fort Worth Center
Sat 04:30:15 AM 33.0089 -93.3186 110° East 544 626 37,000  Level Fort Worth Center
Sat 04:31:15 AM 32.9553 -93.1528 111° Southeast 544 626 37,000  Level Fort Worth Center
Sat 04:32:15 AM 32.9017 -92.9872 111° Southeast 544 626 37,000  Level Fort Worth Center
Sat 04:33:15 AM 32.8497 -92.8217 110° East 544 626 37,000  Level Fort Worth Center
Sat 04:34:15 AM 32.7975 -92.6539 110° East 544 626 37,000  Level Fort Worth Center
Sat 04:35:15 AM 32.7453 -92.4886 111° Southeast 544 626 37,000  Level Fort Worth Center
Sat 04:36:15 AM 32.6931 -92.3261 111° Southeast 539 620 37,000  Level Fort Worth Center
Sat 04:37:15 AM 32.6342 -92.1667 114° Southeast 539 620 37,000  Level Fort Worth Center
Sat 04:38:56 AM 32.5333 -91.8703 112° Southeast 530 610 37,000  Level Memphis Center
Sat 04:39:56 AM 32.4811 -91.7044 110° East 535 616 37,000  Level Memphis Center
Sat 04:40:56 AM 32.4264 -91.5386 111° Southeast 535 616 37,000  Level Memphis Center
Sat 04:41:56 AM 32.3714 -91.3781 112° Southeast 535 616 37,000  Level Memphis Center
Sat 04:42:21 AM 32.3561 -91.3339 112° Southeast 535 616 37,000  Level Houston Center
Sat 04:42:56 AM 32.3203 -91.2300 112° Southeast 535 616 37,000  Level Memphis Center
Sat 04:43:56 AM 32.2650 -91.0672 112° Southeast 535 616 37,000  Level Memphis Center
Sat 04:44:56 AM 32.2094 -90.9047 112° Southeast 535 616 37,000  Level Memphis Center
Sat 04:45:56 AM 32.1536 -90.7425 112° Southeast 535 616 37,000  Level Memphis Center
Sat 04:46:56 AM 32.1017 -90.5853 111° Southeast 529 609 37,000  Level Memphis Center
Sat 04:47:56 AM 32.0456 -90.4258 113° Southeast 524 603 37,000  Level Memphis Center
Sat 04:48:56 AM 31.9914 -90.2692 112° Southeast 518 596 37,000  Level Memphis Center
Sat 04:49:56 AM 31.9347 -90.1103 113° Southeast 518 596 37,000  Level Memphis Center
Sat 04:50:56 AM 31.8781 -89.9511 113° Southeast 518 596 37,000  Level Memphis Center
Sat 04:51:56 AM 31.8208 -89.7903 113° Southeast 518 596 37,000  Level Memphis Center
Sat 04:52:56 AM 31.7658 -89.6292 112° Southeast 518 596 37,000  Level Memphis Center
Sat 04:53:22 AM 31.7447 -89.5725 114° Southeast 532 612 37,000  Level Houston Center
Sat 04:54:23 AM 31.6786 -89.3919 113° Southeast 534 615 37,000  Level Houston Center
Sat 04:54:56 AM 31.6422 -89.2983 115° Southeast 518 596 37,000  Level Memphis Center
Sat 04:55:23 AM 31.6225 -89.2317 109° East 532 612 37,000  Level Houston Center
Sat 04:56:23 AM 31.5647 -89.0728 113° Southeast 531 611 37,000  Level Houston Center
Sat 04:57:23 AM 31.5064 -88.9153 113° Southeast 529 609 37,000  Level Houston Center
Sat 04:58:23 AM 31.4489 -88.7547 113° Southeast 531 611 37,000  Level Houston Center
Sat 04:59:23 AM 31.3914 -88.5975 113° Southeast 525 604 37,000  Level Houston Center
Sat 05:00:24 AM 31.3347 -88.4411 113° Southeast 522 601 37,000  Level Houston Center
Sat 05:01:24 AM 31.2764 -88.2844 114° Southeast 520 598 37,000  Level Houston Center
Sat 05:02:24 AM 31.2267 -88.1503 113° Southeast 518 596 37,000  Level Houston Center
Sat 05:03:24 AM 31.1694 -87.9956 113° Southeast 519 597 37,000  Level Houston Center
Sat 05:04:24 AM 31.1106 -87.8392 114° Southeast 524 603 37,000  Level Houston Center
Sat 05:05:24 AM 31.0428 -87.6572 113° Southeast 520 598 37,000  Level Houston Center
Sat 05:05:55 AM 31.0189 -87.5950 114° Southeast 518 596 37,000  Level Jacksonville Center
Sat 05:06:55 AM 30.9597 -87.4394 114° Southeast 518 596 37,000  Level Jacksonville Center
Sat 05:07:55 AM 30.9028 -87.2842 113° Southeast 513 590 37,000  Level Jacksonville Center
Sat 05:08:55 AM 30.8433 -87.1289 114° Southeast 513 590 37,000  Level Jacksonville Center
Sat 05:09:55 AM 30.7856 -86.9767 114° Southeast 513 590 37,000  Level Jacksonville Center
Sat 05:10:55 AM 30.7256 -86.8292 115° Southeast 513 590 37,000  Level Jacksonville Center
Sat 05:11:55 AM 30.6675 -86.6817 115° Southeast 507 583 37,000  Level Jacksonville Center
Sat 05:12:55 AM 30.6111 -86.5322 114° Southeast 507 583 37,000  Level Jacksonville Center
Sat 05:13:55 AM 30.5525 -86.3878 115° Southeast 502 578 37,000  Level Jacksonville Center
Sat 05:14:55 AM 30.4958 -86.2433 114° Southeast 496 571 37,000  Level Jacksonville Center
Sat 05:15:55 AM 30.4392 -86.0969 114° Southeast 490 564 37,000  Level Jacksonville Center
Sat 05:16:55 AM 30.3842 -85.9531 114° Southeast 490 564 37,000  Level Jacksonville Center
Sat 05:17:55 AM 30.3292 -85.8142 115° Southeast 485 558 37,000  Level Jacksonville Center
Sat 05:18:55 AM 30.2739 -85.6731 114° Southeast 485 558 37,000  Level Jacksonville Center
Sat 05:19:55 AM 30.2081 -85.5244 117° Southeast 478 550 37,000  Level Jacksonville Center
Sat 05:20:55 AM 30.1567 -85.3814 113° Southeast 472 543 37,000  Level Jacksonville Center
Sat 05:21:55 AM 30.1008 -85.2453 115° Southeast 472 543 37,000  Level Jacksonville Center
Sat 05:22:55 AM 30.0428 -85.1050 116° Southeast 472 543 37,000 -50 Level Jacksonville Center
Sat 05:23:55 AM 29.9867 -84.9692 115° Southeast 472 543 36,900 -600 Descending Jacksonville Center
Sat 05:24:55 AM 29.9325 -84.8292 114° Southeast 472 543 35,800 -1,150 Descending Jacksonville Center
Sat 05:25:55 AM 29.8739 -84.6867 115° Southeast 472 543 34,600 -1,150 Descending Jacksonville Center
Sat 05:26:55 AM 29.8133 -84.5419 116° Southeast 477 549 33,500 -1,150 Descending Jacksonville Center
Sat 05:27:55 AM 29.7525 -84.3925 115° Southeast 494 568 32,300 -1,150 Descending Jacksonville Center
Sat 05:28:55 AM 29.6894 -84.2481 117° Southeast 499 574 31,200 -1,100 Descending Jacksonville Center
Sat 05:29:55 AM 29.6303 -84.0992 115° Southeast 509 586 30,100 -1,150 Descending Jacksonville Center
Sat 05:30:55 AM 29.5689 -83.9575 116° Southeast 509 586 28,900 -1,150 Descending Jacksonville Center
Sat 05:31:55 AM 29.5094 -83.8114 115° Southeast 503 579 27,800 -950 Descending Jacksonville Center
Sat 05:32:55 AM 29.4561 -83.6819 115° Southeast 503 579 27,000 -400 Descending Jacksonville Center
Sat 05:33:55 AM 29.3983 -83.5456 116° Southeast 492 566 27,000  Level Jacksonville Center
Sat 05:34:55 AM 29.3386 -83.4094 117° Southeast 481 554 27,000 -200 Level Jacksonville Center
Sat 05:35:55 AM 29.2828 -83.2736 115° Southeast 475 547 26,600 -700 Descending Jacksonville Center
Sat 05:36:55 AM 29.2286 -83.1425 115° Southeast 464 534 25,600 -1,050 Descending Jacksonville Center
Sat 05:37:55 AM 29.1706 -83.0114 117° Southeast 464 534 24,500 -1,050 Descending Jacksonville Center
Sat 05:38:55 AM 29.1161 -82.8831 116° Southeast 454 522 23,500 -1,000 Descending Jacksonville Center
Sat 05:39:55 AM 29.0639 -82.7594 116° Southeast 444 511 22,500 -1,000 Descending Jacksonville Center
Sat 05:40:55 AM 29.0117 -82.6339 115° Southeast 438 504 21,500 -1,400 Descending Jacksonville Center
Sat 05:41:55 AM 28.9569 -82.5153 118° Southeast 427 491 19,700 -1,950 Descending Jacksonville Center
Sat 05:42:55 AM 28.9086 -82.3992 115° Southeast 417 480 17,600 -2,100 Descending Jacksonville Center
Sat 05:43:55 AM 28.8622 -82.2903 116° Southeast 400 460 15,500 -2,050 Descending Jacksonville Center
Sat 05:44:55 AM 28.8136 -82.1817 117° Southeast 389 448 13,500 -1,950 Descending Jacksonville Center
Sat 05:45:55 AM 28.7692 -82.0756 116° Southeast 374 430 11,600 -1,200 Descending Jacksonville Center
Sat 05:46:55 AM 28.7164 -81.9836 123° Southeast 361 415 11,100 -250 Descending Jacksonville Center
Sat 05:47:55 AM 28.6575 -81.9014 129° Southeast 349 402 11,100 -67 Level Jacksonville Center
Sat 05:48:25 AM 28.6167 -81.8500 132° Southeast 342 394 11,000 -800 Descending Orlando TRACON
Sat 05:49:25 AM 28.5667 -81.7667 124° Southeast 303 349 9,900 -1,150 Descending Orlando TRACON
Sat 05:50:25 AM 28.5167 -81.7000 130° Southeast 300 345 8,700 -1,300 Descending Orlando TRACON
Sat 05:51:25 AM 28.4667 -81.6167 124° Southeast 284 327 7,300 -1,400 Descending Orlando TRACON
Sat 05:52:25 AM 28.4167 -81.5500 130° Southeast 281 323 5,900 -1,350 Descending Orlando TRACON
Sat 05:53:25 AM 28.3833 -81.4833 120° Southeast 279 321 4,600 -1,100 Descending Orlando TRACON
Sat 05:54:25 AM 28.3333 -81.4167 130° Southeast 254 292 3,700 -843 Descending Orlando TRACON
Sat 05:55:26 AM 28.2667 -81.3833 156° South 225 259 2,900 -694 Descending Orlando TRACON
Sat 05:56:26 AM 28.2500 -81.3333 111° Southeast 188 216 2,300 -650 Descending Orlando TRACON
Sat 05:57:26 AM 28.3000 -81.3167 16° North 177 204 1,600 -400 Descending Orlando TRACON
Sat 05:58:26 AM 28.3500 -81.3167 360° North 169 194 1,500 -450 Descending Orlando TRACON
Sat 05:59:26 AM 28.3833 -81.3167 360° North 155 178 700 -800 Descending Orlando TRACON

Login

Don't have an account? Register now (free) for customized features, flight alerts, and more!